Bulk Japan — D5GP4 — position and weather

sailwx.info

Track history (hours):
 
Tides and Currents Weather Stations Pressure Air Temp Water Temp Dewpoint Dewpoint Depression Visibility Wind Speed Wind Dir Waves Ship Positions

Bulk Japan

Last reported at 2017-Sep-20 06:06 UTC. Time now 2017-Sep-26 02:16 UTC.
Position N 36°51' W 075°51'.

Length 227 m; draft 14 m.

Type: Cargo ship. MMSI: 636016529.

Date/timePositionNaut miles runAvg speedWind from/ knotsBaromVisibWave heightAir tempDewpointWater temp
2017-Sep-20 06:06N 36°51' W 075°51'1 9.4
2017-Sep-20 05:58N 36°52' W 075°52'4 9.5
2017-Sep-20 05:30N 36°55' W 075°56'4 8.7
2017-Sep-20 05:00N 36°57' W 076°01'4 8.8
2017-Sep-20 04:30N 36°58' W 076°06'10 8.6
2017-Sep-20 03:19N 36°59' W 076°19'3 9.0
2017-Sep-20 03:00N 36°57' W 076°20'4 7.9
2017-Sep-20 02:30N 36°53' W 076°20'0 0.3
2017-Sep-20 02:00N 36°53' W 076°20'0 0.0
2017-Sep-20 01:27N 36°53' W 076°20'0 0.0
2017-Sep-20 01:00N 36°53' W 076°20'0 0.0
2017-Sep-20 00:30N 36°53' W 076°20'0 0.0
2017-Sep-20 00:00N 36°53' W 076°20'0 0.0
2017-Sep-19 23:30N 36°53' W 076°20'0 0.0
2017-Sep-19 23:00N 36°53' W 076°20'0 0.1
2017-Sep-19 22:30N 36°53' W 076°20'0 0.0
2017-Sep-19 22:00N 36°53' W 076°20'0 0.0
2017-Sep-19 21:30N 36°53' W 076°20'0 0.0
2017-Sep-19 21:00N 36°53' W 076°20'0 0.0
2017-Sep-19 20:30N 36°53' W 076°20'0 0.0
2017-Sep-19 20:00N 36°53' W 076°20'0 0.0
2017-Sep-19 19:30N 36°53' W 076°20'0 0.0
2017-Sep-19 19:00N 36°53' W 076°20'0 0.0
2017-Sep-19 18:30N 36°53' W 076°20'0 0.0
2017-Sep-19 18:00N 36°53' W 076°20'0 0.0
2017-Sep-19 17:30N 36°53' W 076°20'0 0.0
2017-Sep-19 16:54N 36°53' W 076°20'0 0.0
2017-Sep-19 16:30N 36°53' W 076°20'0 0.0
2017-Sep-19 16:00N 36°53' W 076°20'0 0.0
2017-Sep-19 15:30N 36°53' W 076°20'0 0.0
2017-Sep-19 15:00N 36°53' W 076°20'0 0.0
2017-Sep-19 14:15N 36°53' W 076°20'0 0.0
2017-Sep-19 14:00N 36°53' W 076°20'0 0.0
2017-Sep-19 13:30N 36°53' W 076°20'0 0.0
2017-Sep-19 12:57N 36°53' W 076°20'0 0.0
2017-Sep-19 12:27N 36°53' W 076°20'0 0.0
2017-Sep-19 12:00N 36°53' W 076°20'0 0.0
2017-Sep-19 11:30N 36°53' W 076°20'0 0.0
2017-Sep-19 11:00N 36°53' W 076°20'0 0.0
2017-Sep-19 10:30N 36°53' W 076°20'0 0.0
2017-Sep-19 10:00N 36°53' W 076°20'0 0.0
2017-Sep-19 09:30N 36°53' W 076°20'0 0.0
2017-Sep-19 09:00N 36°53' W 076°20'0 0.0
2017-Sep-19 08:30N 36°53' W 076°20'0 0.0
2017-Sep-19 08:00N 36°53' W 076°20'0 0.0
2017-Sep-19 07:30N 36°53' W 076°20'0 0.0
2017-Sep-19 07:00N 36°53' W 076°20'0 0.0
2017-Sep-19 06:30N 36°53' W 076°20'0 0.0
2017-Sep-19 06:00N 36°53' W 076°20'0 0.0
2017-Sep-19 05:30N 36°53' W 076°20'0 0.0
2017-Sep-19 05:00N 36°53' W 076°20'1 2.5
2017-Sep-19 04:30N 36°54' W 076°20'3 6.0
2017-Sep-19 04:00N 36°57' W 076°20'4 7.0
2017-Sep-19 03:30N 36°57' W 076°25'1 0.0
2017-Sep-17 11:09N 36°58' W 076°26'0 1.9
2017-Sep-17 10:58N 36°58' W 076°26'3 6.6
2017-Sep-17 10:30N 36°57' W 076°22'8 9.4
2017-Sep-17 09:40N 36°60' W 076°12'210.2
2017-Sep-17 09:30N 36°59' W 076°10'510.0
2017-Sep-17 09:00N 36°58' W 076°04'3 5.5
2017-Sep-17 08:30N 37°00' W 076°02'5 9.0
2017-Sep-17 08:00N 37°04' W 076°06'7 3.9
2017-Sep-17 06:10N 37°11' W 076°05'0 0.1
2017-Sep-17 05:52N 37°11' W 076°05'0 0.1
2017-Sep-17 05:04N 37°11' W 076°05'0 0.0
2017-Sep-17 04:49N 37°11' W 076°05'0 0.2
2017-Sep-17 04:25N 37°11' W 076°05'0 0.0
2017-Sep-17 03:58N 37°11' W 076°05'0 0.1
2017-Sep-17 03:22N 37°11' W 076°05'0 0.2
2017-Sep-17 02:58N 37°11' W 076°05'0 0.3
2017-Sep-17 02:22N 37°11' W 076°05'0 0.0
2017-Sep-16 15:04N 37°11' W 076°05'0 0.0
2017-Sep-16 14:37N 37°11' W 076°05'0 0.1
2017-Sep-16 14:22N 37°11' W 076°05'0 0.0
2017-Sep-16 13:52N 37°11' W 076°05'0 0.2
2017-Sep-16 13:25N 37°11' W 076°05'0 0.2
2017-Sep-16 12:58N 37°11' W 076°05'0 0.1
2017-Sep-16 12:28N 37°11' W 076°05'0 0.1
2017-Sep-16 11:43N 37°11' W 076°05'0 0.0
2017-Sep-16 11:28N 37°11' W 076°05'0 0.0
2017-Sep-16 10:58N 37°11' W 076°05'0 0.1
2017-Sep-16 08:52N 37°11' W 076°05'0 0.1
2017-Sep-16 07:37N 37°11' W 076°05'0 0.1
2017-Sep-16 07:19N 37°11' W 076°05'0 0.1
2017-Sep-16 06:55N 37°11' W 076°05'0 0.0
2017-Sep-16 06:19N 37°11' W 076°05'0 0.0
2017-Sep-16 05:01N 37°11' W 076°05'0 0.3
2017-Sep-16 04:55N 37°11' W 076°05'0 0.0
2017-Sep-16 04:25N 37°11' W 076°05'0 0.0
2017-Sep-15 23:04N 37°11' W 076°05'0 0.1
2017-Sep-15 22:34N 37°11' W 076°05'0 0.1
2017-Sep-15 22:10N 37°11' W 076°05'0 0.1
2017-Sep-15 21:58N 37°11' W 076°05'0 0.0
2017-Sep-15 21:22N 37°11' W 076°05'0 0.0
2017-Sep-15 20:58N 37°11' W 076°05'0 0.1
2017-Sep-15 18:04N 37°11' W 076°05'0 0.0
2017-Sep-15 14:07N 37°11' W 076°05'0 0.2
2017-Sep-15 13:58N 37°11' W 076°05'0 0.0
2017-Sep-15 13:25N 37°11' W 076°05'0 0.1
2017-Sep-15 12:58N 37°11' W 076°05'0 0.1
2017-Sep-15 11:22N 37°11' W 076°05'0 0.0
2017-Sep-15 08:22N 37°11' W 076°05'0 0.0
2017-Sep-15 03:04N 37°11' W 076°05'0 0.1
2017-Sep-15 02:55N 37°11' W 076°05'0 0.1
2017-Sep-15 02:16N 37°11' W 076°05'0 0.1
2017-Sep-15 01:58N 37°11' W 076°05'0 0.0
2017-Sep-14 23:22N 37°11' W 076°05'0 0.1
2017-Sep-14 22:58N 37°11' W 076°05'0 0.0
2017-Sep-14 22:19N 37°11' W 076°05'0 0.0
2017-Sep-14 21:58N 37°11' W 076°05'0 0.0
2017-Sep-14 13:43N 37°11' W 076°05'0 0.1
2017-Sep-14 13:25N 37°11' W 076°05'0 0.0
2017-Sep-14 12:22N 37°11' W 076°05'0 0.0
2017-Sep-14 07:46N 37°11' W 076°05'0 0.0
2017-Sep-14 07:22N 37°11' W 076°05'0 0.0
2017-Sep-14 06:55N 37°11' W 076°05'0 0.2
2017-Sep-14 06:19N 37°11' W 076°05'0 0.3
2017-Sep-14 05:52N 37°11' W 076°05'0 0.1
2017-Sep-14 05:25N 37°11' W 076°05'0 0.0
2017-Sep-14 04:55N 37°11' W 076°05'0 0.0
2017-Sep-14 04:22N 37°11' W 076°05'0 0.0
2017-Sep-14 03:25N 37°11' W 076°05'0 0.1
2017-Sep-14 02:55N 37°11' W 076°05'0 0.1
2017-Sep-14 00:07N 37°11' W 076°05'0 0.0
2017-Sep-13 23:40N 37°11' W 076°05'0 0.1
2017-Sep-13 23:28N 37°11' W 076°05'0 0.2
2017-Sep-13 22:58N 37°11' W 076°05'0 0.1
2017-Sep-13 22:28N 37°11' W 076°05'0 0.1
2017-Sep-13 21:58N 37°11' W 076°05'0 0.0
2017-Sep-13 21:28N 37°11' W 076°05'0 0.0
2017-Sep-13 20:58N 37°11' W 076°05'0 0.1
2017-Sep-13 20:28N 37°11' W 076°05'0 0.0
2017-Sep-13 18:49N 37°11' W 076°05'0 0.1
2017-Sep-13 18:28N 37°11' W 076°05'0 0.1
2017-Sep-13 17:04N 37°11' W 076°05'0 0.0
2017-Sep-13 14:43N 37°11' W 076°05'0 0.0
2017-Sep-13 14:28N 37°11' W 076°05'0 0.0
2017-Sep-13 13:13N 37°11' W 076°05'0 0.1
2017-Sep-13 12:49N 37°11' W 076°05'0 0.1
2017-Sep-13 12:25N 37°11' W 076°05'0 0.1
2017-Sep-13 11:19N 37°11' W 076°05'0 0.0
2017-Sep-13 04:43N 37°11' W 076°05'0 0.1
2017-Sep-13 04:25N 37°11' W 076°05'0 0.1
2017-Sep-13 03:55N 37°11' W 076°05'0 0.1
2017-Sep-13 03:28N 37°11' W 076°05'0 0.1
2017-Sep-13 02:58N 37°11' W 076°05'0 0.0
2017-Sep-13 02:28N 37°11' W 076°05'0 0.0
2017-Sep-13 01:55N 37°11' W 076°05'0 0.0
2017-Sep-13 01:22N 37°11' W 076°05'0 0.0
2017-Sep-13 00:55N 37°11' W 076°05'0 0.0
2017-Sep-13 00:22N 37°11' W 076°05'0 0.0
2017-Sep-12 23:19N 37°11' W 076°05'0 0.1
2017-Sep-12 20:34N 37°11' W 076°05'0 0.0
2017-Sep-12 20:25N 37°11' W 076°05'0 0.0
2017-Sep-12 14:43N 37°11' W 076°05'0 0.1
2017-Sep-12 14:28N 37°11' W 076°05'0 0.1
2017-Sep-12 13:58N 37°11' W 076°05'0 0.0
2017-Sep-12 13:28N 37°11' W 076°05'0 0.1
2017-Sep-12 12:58N 37°11' W 076°05'0 0.0
2017-Sep-12 09:13N 37°11' W 076°05'0 0.0
2017-Sep-12 08:58N 37°11' W 076°05'0 0.0
2017-Sep-12 08:28N 37°11' W 076°05'0 0.0
2017-Sep-12 07:13N 37°11' W 076°05'0 0.1
2017-Sep-12 06:55N 37°11' W 076°05'1 1.3
2017-Sep-12 06:29N 37°12' W 076°06'7 9.1
2017-Sep-12 05:41N 37°04' W 076°06'314.9
2017-Sep-12 05:30N 37°02' W 076°04'713.5
2017-Sep-12 05:00N 36°57' W 075°59'4 8.3
2017-Sep-12 04:30N 36°57' W 075°53'  
Track history (hours):
 
Tides and Currents Weather Stations Pressure Air Temp Water Temp Dewpoint Dewpoint Depression Visibility Wind Speed Wind Dir Waves Ship Positions

Bulk Japan

Last reported at 2017-Sep-20 06:06 UTC. Time now 2017-Sep-26 02:16 UTC.
Position N 36°51' W 075°51'.

Length 227 m; draft 14 m.

Type: Cargo ship. MMSI: 636016529.

Date/timePositionNaut miles runAvg speedWind from/ knotsBaromVisibWave heightAir tempDewpointWater temp
2017-Sep-20 06:06N 36°51' W 075°51'1 9.4
2017-Sep-20 05:58N 36°52' W 075°52'4 9.5
2017-Sep-20 05:30N 36°55' W 075°56'4 8.7
2017-Sep-20 05:00N 36°57' W 076°01'4 8.8
2017-Sep-20 04:30N 36°58' W 076°06'10 8.6
2017-Sep-20 03:19N 36°59' W 076°19'3 9.0
2017-Sep-20 03:00N 36°57' W 076°20'4 7.9
2017-Sep-20 02:30N 36°53' W 076°20'0 0.3
2017-Sep-20 02:00N 36°53' W 076°20'0 0.0
2017-Sep-20 01:27N 36°53' W 076°20'0 0.0
2017-Sep-20 01:00N 36°53' W 076°20'0 0.0
2017-Sep-20 00:30N 36°53' W 076°20'0 0.0
2017-Sep-20 00:00N 36°53' W 076°20'0 0.0
2017-Sep-19 23:30N 36°53' W 076°20'0 0.0
2017-Sep-19 23:00N 36°53' W 076°20'0 0.1
2017-Sep-19 22:30N 36°53' W 076°20'0 0.0
2017-Sep-19 22:00N 36°53' W 076°20'0 0.0
2017-Sep-19 21:30N 36°53' W 076°20'0 0.0
2017-Sep-19 21:00N 36°53' W 076°20'0 0.0
2017-Sep-19 20:30N 36°53' W 076°20'0 0.0
2017-Sep-19 20:00N 36°53' W 076°20'0 0.0
2017-Sep-19 19:30N 36°53' W 076°20'0 0.0
2017-Sep-19 19:00N 36°53' W 076°20'0 0.0
2017-Sep-19 18:30N 36°53' W 076°20'0 0.0
2017-Sep-19 18:00N 36°53' W 076°20'0 0.0
2017-Sep-19 17:30N 36°53' W 076°20'0 0.0
2017-Sep-19 16:54N 36°53' W 076°20'0 0.0
2017-Sep-19 16:30N 36°53' W 076°20'0 0.0
2017-Sep-19 16:00N 36°53' W 076°20'0 0.0
2017-Sep-19 15:30N 36°53' W 076°20'0 0.0
2017-Sep-19 15:00N 36°53' W 076°20'0 0.0
2017-Sep-19 14:15N 36°53' W 076°20'0 0.0
2017-Sep-19 14:00N 36°53' W 076°20'0 0.0
2017-Sep-19 13:30N 36°53' W 076°20'0 0.0
2017-Sep-19 12:57N 36°53' W 076°20'0 0.0
2017-Sep-19 12:27N 36°53' W 076°20'0 0.0
2017-Sep-19 12:00N 36°53' W 076°20'0 0.0
2017-Sep-19 11:30N 36°53' W 076°20'0 0.0
2017-Sep-19 11:00N 36°53' W 076°20'0 0.0
2017-Sep-19 10:30N 36°53' W 076°20'0 0.0
2017-Sep-19 10:00N 36°53' W 076°20'0 0.0
2017-Sep-19 09:30N 36°53' W 076°20'0 0.0
2017-Sep-19 09:00N 36°53' W 076°20'0 0.0
2017-Sep-19 08:30N 36°53' W 076°20'0 0.0
2017-Sep-19 08:00N 36°53' W 076°20'0 0.0
2017-Sep-19 07:30N 36°53' W 076°20'0 0.0
2017-Sep-19 07:00N 36°53' W 076°20'0 0.0
2017-Sep-19 06:30N 36°53' W 076°20'0 0.0
2017-Sep-19 06:00N 36°53' W 076°20'0 0.0
2017-Sep-19 05:30N 36°53' W 076°20'0 0.0
2017-Sep-19 05:00N 36°53' W 076°20'1 2.5
2017-Sep-19 04:30N 36°54' W 076°20'3 6.0
2017-Sep-19 04:00N 36°57' W 076°20'4 7.0
2017-Sep-19 03:30N 36°57' W 076°25'1 0.0
2017-Sep-17 11:09N 36°58' W 076°26'0 1.9
2017-Sep-17 10:58N 36°58' W 076°26'3 6.6
2017-Sep-17 10:30N 36°57' W 076°22'8 9.4
2017-Sep-17 09:40N 36°60' W 076°12'210.2
2017-Sep-17 09:30N 36°59' W 076°10'510.0
2017-Sep-17 09:00N 36°58' W 076°04'3 5.5
2017-Sep-17 08:30N 37°00' W 076°02'5 9.0
2017-Sep-17 08:00N 37°04' W 076°06'7 3.9
2017-Sep-17 06:10N 37°11' W 076°05'0 0.1
2017-Sep-17 05:52N 37°11' W 076°05'0 0.1
2017-Sep-17 05:04N 37°11' W 076°05'0 0.0
2017-Sep-17 04:49N 37°11' W 076°05'0 0.2
2017-Sep-17 04:25N 37°11' W 076°05'0 0.0
2017-Sep-17 03:58N 37°11' W 076°05'0 0.1
2017-Sep-17 03:22N 37°11' W 076°05'0 0.2
2017-Sep-17 02:58N 37°11' W 076°05'0 0.3
2017-Sep-17 02:22N 37°11' W 076°05'0 0.0
2017-Sep-16 15:04N 37°11' W 076°05'0 0.0
2017-Sep-16 14:37N 37°11' W 076°05'0 0.1
2017-Sep-16 14:22N 37°11' W 076°05'0 0.0
2017-Sep-16 13:52N 37°11' W 076°05'0 0.2
2017-Sep-16 13:25N 37°11' W 076°05'0 0.2
2017-Sep-16 12:58N 37°11' W 076°05'0 0.1
2017-Sep-16 12:28N 37°11' W 076°05'0 0.1
2017-Sep-16 11:43N 37°11' W 076°05'0 0.0
2017-Sep-16 11:28N 37°11' W 076°05'0 0.0
2017-Sep-16 10:58N 37°11' W 076°05'0 0.1
2017-Sep-16 08:52N 37°11' W 076°05'0 0.1
2017-Sep-16 07:37N 37°11' W 076°05'0 0.1
2017-Sep-16 07:19N 37°11' W 076°05'0 0.1
2017-Sep-16 06:55N 37°11' W 076°05'0 0.0
2017-Sep-16 06:19N 37°11' W 076°05'0 0.0
2017-Sep-16 05:01N 37°11' W 076°05'0 0.3
2017-Sep-16 04:55N 37°11' W 076°05'0 0.0
2017-Sep-16 04:25N 37°11' W 076°05'0 0.0
2017-Sep-15 23:04N 37°11' W 076°05'0 0.1
2017-Sep-15 22:34N 37°11' W 076°05'0 0.1
2017-Sep-15 22:10N 37°11' W 076°05'0 0.1
2017-Sep-15 21:58N 37°11' W 076°05'0 0.0
2017-Sep-15 21:22N 37°11' W 076°05'0 0.0
2017-Sep-15 20:58N 37°11' W 076°05'0 0.1
2017-Sep-15 18:04N 37°11' W 076°05'0 0.0
2017-Sep-15 14:07N 37°11' W 076°05'0 0.2
2017-Sep-15 13:58N 37°11' W 076°05'0 0.0
2017-Sep-15 13:25N 37°11' W 076°05'0 0.1
2017-Sep-15 12:58N 37°11' W 076°05'0 0.1
2017-Sep-15 11:22N 37°11' W 076°05'0 0.0
2017-Sep-15 08:22N 37°11' W 076°05'0 0.0
2017-Sep-15 03:04N 37°11' W 076°05'0 0.1
2017-Sep-15 02:55N 37°11' W 076°05'0 0.1
2017-Sep-15 02:16N 37°11' W 076°05'0 0.1
2017-Sep-15 01:58N 37°11' W 076°05'0 0.0
2017-Sep-14 23:22N 37°11' W 076°05'0 0.1
2017-Sep-14 22:58N 37°11' W 076°05'0 0.0
2017-Sep-14 22:19N 37°11' W 076°05'0 0.0
2017-Sep-14 21:58N 37°11' W 076°05'0 0.0
2017-Sep-14 13:43N 37°11' W 076°05'0 0.1
2017-Sep-14 13:25N 37°11' W 076°05'0 0.0
2017-Sep-14 12:22N 37°11' W 076°05'0 0.0
2017-Sep-14 07:46N 37°11' W 076°05'0 0.0
2017-Sep-14 07:22N 37°11' W 076°05'0 0.0
2017-Sep-14 06:55N 37°11' W 076°05'0 0.2
2017-Sep-14 06:19N 37°11' W 076°05'0 0.3
2017-Sep-14 05:52N 37°11' W 076°05'0 0.1
2017-Sep-14 05:25N 37°11' W 076°05'0 0.0
2017-Sep-14 04:55N 37°11' W 076°05'0 0.0
2017-Sep-14 04:22N 37°11' W 076°05'0 0.0
2017-Sep-14 03:25N 37°11' W 076°05'0 0.1
2017-Sep-14 02:55N 37°11' W 076°05'0 0.1
2017-Sep-14 00:07N 37°11' W 076°05'0 0.0
2017-Sep-13 23:40N 37°11' W 076°05'0 0.1
2017-Sep-13 23:28N 37°11' W 076°05'0 0.2
2017-Sep-13 22:58N 37°11' W 076°05'0 0.1
2017-Sep-13 22:28N 37°11' W 076°05'0 0.1
2017-Sep-13 21:58N 37°11' W 076°05'0 0.0
2017-Sep-13 21:28N 37°11' W 076°05'0 0.0
2017-Sep-13 20:58N 37°11' W 076°05'0 0.1
2017-Sep-13 20:28N 37°11' W 076°05'0 0.0
2017-Sep-13 18:49N 37°11' W 076°05'0 0.1
2017-Sep-13 18:28N 37°11' W 076°05'0 0.1
2017-Sep-13 17:04N 37°11' W 076°05'0 0.0
2017-Sep-13 14:43N 37°11' W 076°05'0 0.0
2017-Sep-13 14:28N 37°11' W 076°05'0 0.0
2017-Sep-13 13:13N 37°11' W 076°05'0 0.1
2017-Sep-13 12:49N 37°11' W 076°05'0 0.1
2017-Sep-13 12:25N 37°11' W 076°05'0 0.1
2017-Sep-13 11:19N 37°11' W 076°05'0 0.0
2017-Sep-13 04:43N 37°11' W 076°05'0 0.1
2017-Sep-13 04:25N 37°11' W 076°05'0 0.1
2017-Sep-13 03:55N 37°11' W 076°05'0 0.1
2017-Sep-13 03:28N 37°11' W 076°05'0 0.1
2017-Sep-13 02:58N 37°11' W 076°05'0 0.0
2017-Sep-13 02:28N 37°11' W 076°05'0 0.0
2017-Sep-13 01:55N 37°11' W 076°05'0 0.0
2017-Sep-13 01:22N 37°11' W 076°05'0 0.0
2017-Sep-13 00:55N 37°11' W 076°05'0 0.0
2017-Sep-13 00:22N 37°11' W 076°05'0 0.0
2017-Sep-12 23:19N 37°11' W 076°05'0 0.1
2017-Sep-12 20:34N 37°11' W 076°05'0 0.0
2017-Sep-12 20:25N 37°11' W 076°05'0 0.0
2017-Sep-12 14:43N 37°11' W 076°05'0 0.1
2017-Sep-12 14:28N 37°11' W 076°05'0 0.1
2017-Sep-12 13:58N 37°11' W 076°05'0 0.0
2017-Sep-12 13:28N 37°11' W 076°05'0 0.1
2017-Sep-12 12:58N 37°11' W 076°05'0 0.0
2017-Sep-12 09:13N 37°11' W 076°05'0 0.0
2017-Sep-12 08:58N 37°11' W 076°05'0 0.0
2017-Sep-12 08:28N 37°11' W 076°05'0 0.0
2017-Sep-12 07:13N 37°11' W 076°05'0 0.1
2017-Sep-12 06:55N 37°11' W 076°05'1 1.3
2017-Sep-12 06:29N 37°12' W 076°06'7 9.1
2017-Sep-12 05:41N 37°04' W 076°06'314.9
2017-Sep-12 05:30N 37°02' W 076°04'713.5
2017-Sep-12 05:00N 36°57' W 075°59'4 8.3
2017-Sep-12 04:30N 36°57' W 075°53'  

Dump ship's entire track history